Time;durP1;ratioP1;P1;durP2;ratioP2;P2;SDS_P1;SDS_P2;PMS_P1;PMS_P2;Temp;Humidity;BMP_temperature;BMP_pressure;BME280_temperature;BME280_humidity;BME280_pressure;Samples;Min_cycle;Max_cycle;Signal;HPM_P1;HPM_P2
2023/07/14 00:01:25;;;;;;;4.93;2.88;;;16.60;99.90;;;;;;5009795;28;37414;-89
2023/07/14 00:03:51;;;;;;;8.15;2.83;;;16.50;99.90;;;;;;5011185;28;37568;-90
2023/07/14 00:06:18;;;;;;;8.13;2.88;;;16.50;99.90;;;;;;5009039;28;39045;-90
2023/07/14 00:08:46;;;;;;;8.50;2.92;;;16.50;99.90;;;;;;5017064;28;35155;-90
2023/07/14 00:11:14;;;;;;;7.25;2.72;;;16.50;99.90;;;;;;5005814;28;36872;-90
2023/07/14 00:13:40;;;;;;;10.02;3.78;;;16.40;99.90;;;;;;5008061;28;36142;-90
2023/07/14 00:16:29;;;;;;;8.25;3.58;;;16.40;99.90;;;;;;5006249;28;39302;-90
2023/07/14 00:18:56;;;;;;;12.30;3.85;;;16.40;99.90;;;;;;5025296;28;37371;-90
2023/07/14 00:21:24;;;;;;;13.52;3.83;;;16.40;99.90;;;;;;5008759;28;38086;-91
2023/07/14 00:23:59;;;;;;;7.20;3.30;;;16.30;99.90;;;;;;5011384;28;38202;-91
2023/07/14 00:26:26;;;;;;;7.30;3.05;;;16.20;99.90;;;;;;5008989;28;37761;-90
2023/07/14 00:28:55;;;;;;;10.52;3.78;;;16.30;99.90;;;;;;5024438;28;39942;-90
2023/07/14 00:31:23;;;;;;;7.22;3.30;;;16.20;99.90;;;;;;5008894;28;38127;-90
2023/07/14 00:33:57;;;;;;;8.60;3.50;;;16.20;99.90;;;;;;4992082;28;36580;-90
2023/07/14 00:36:24;;;;;;;7.70;3.13;;;16.20;99.90;;;;;;5003464;28;39512;-90
2023/07/14 00:38:50;;;;;;;8.07;3.33;;;16.20;99.90;;;;;;5005627;28;37523;-90
2023/07/14 00:41:23;;;;;;;5.95;3.05;;;16.20;99.90;;;;;;5009589;28;37135;-90
2023/07/14 00:43:51;;;;;;;12.73;3.28;;;16.20;99.90;;;;;;5005421;28;36999;-90
2023/07/14 00:46:26;;;;;;;7.05;2.63;;;16.30;99.90;;;;;;5011662;28;38658;-91
2023/07/14 00:48:56;;;;;;;8.35;2.78;;;16.20;99.90;;;;;;5009606;28;37549;-91
2023/07/14 00:51:24;;;;;;;6.57;2.78;;;16.20;99.90;;;;;;5009083;28;37012;-90
2023/07/14 00:53:51;;;;;;;6.22;2.80;;;16.20;99.90;;;;;;5010940;28;37521;-90
2023/07/14 00:56:35;;;;;;;11.07;3.40;;;16.20;99.90;;;;;;5021330;28;40343;-91
2023/07/14 00:59:08;;;;;;;6.10;2.75;;;16.20;99.90;;;;;;5022572;28;37853;-89
2023/07/14 01:04:10;;;;;;;5.60;2.97;;;16.20;99.90;;;;;;5157289;22;21643;-96
2023/07/14 01:06:39;;;;;;;6.03;2.88;;;16.20;99.90;;;;;;5010860;28;37505;-96
2023/07/14 01:09:13;;;;;;;5.80;2.53;;;16.20;99.90;;;;;;5017764;28;39151;-95
2023/07/14 01:11:55;;;;;;;6.05;2.80;;;16.20;99.90;;;;;;5033097;28;38551;-95
2023/07/14 01:14:31;;;;;;;4.70;2.20;;;16.10;99.90;;;;;;5013464;28;37490;-96
2023/07/14 01:16:59;;;;;;;5.50;2.78;;;16.10;99.90;;;;;;5012546;28;37902;-96
2023/07/14 01:19:45;;;;;;;4.85;2.72;;;16.10;99.90;;;;;;5012272;28;37489;-95
2023/07/14 01:22:52;;;;;;;8.48;2.92;;;16.10;99.90;;;;;;5015163;28;37984;-95
2023/07/14 01:25:38;;;;;;;6.88;2.67;;;16.10;99.90;;;;;;5026336;28;37205;-95
2023/07/14 01:28:27;;;;;;;5.68;2.42;;;16.00;99.90;;;;;;5013952;28;37637;-96
2023/07/14 01:30:57;;;;;;;11.20;3.17;;;16.10;99.90;;;;;;5013813;28;37761;-94
2023/07/14 01:33:44;;;;;;;8.40;2.70;;;16.10;99.90;;;;;;5014795;28;37208;-95
2023/07/14 01:36:10;;;;;;;5.45;2.53;;;16.10;99.90;;;;;;5012544;28;37001;-95
2023/07/14 01:38:44;;;;;;;5.07;2.45;;;16.00;99.90;;;;;;5023112;28;37625;-94
2023/07/14 01:41:11;;;;;;;8.55;3.75;;;16.00;99.90;;;;;;5011267;28;37542;-96
2023/07/14 01:43:40;;;;;;;4.10;2.40;;;15.90;99.90;;;;;;5015002;28;36954;-96
2023/07/14 01:46:21;;;;;;;9.45;3.47;;;15.90;99.90;;;;;;5014353;28;36254;-95
2023/07/14 01:48:59;;;;;;;9.43;2.63;;;15.90;99.90;;;;;;5014229;28;38057;-96
2023/07/14 01:51:43;;;;;;;5.20;2.67;;;15.90;99.90;;;;;;5009026;28;38523;-96
2023/07/14 01:54:23;;;;;;;8.00;3.22;;;15.80;99.90;;;;;;5005118;28;37064;-96
2023/07/14 01:57:13;;;;;;;6.75;2.90;;;15.80;99.90;;;;;;5015285;28;35749;-95
2023/07/14 01:59:55;;;;;;;8.70;3.45;;;15.70;99.90;;;;;;5028225;28;47189;-95
2023/07/14 02:02:32;;;;;;;6.57;3.10;;;15.70;99.90;;;;;;5000822;28;37489;-96
2023/07/14 02:05:23;;;;;;;9.32;3.92;;;15.70;99.90;;;;;;5001002;28;37375;-96
2023/07/14 02:07:50;;;;;;;8.95;3.85;;;15.60;99.90;;;;;;5011831;28;47346;-96
2023/07/14 02:10:18;;;;;;;7.75;3.10;;;15.60;99.90;;;;;;5013484;28;37693;-96
2023/07/14 02:12:46;;;;;;;9.40;3.20;;;15.50;99.90;;;;;;5014517;28;37067;-95
2023/07/14 02:15:20;;;;;;;5.70;3.10;;;15.50;99.90;;;;;;5016242;28;37323;-96
2023/07/14 02:17:53;;;;;;;5.32;3.50;;;15.50;99.90;;;;;;5015230;28;36385;-95
2023/07/14 02:20:35;;;;;;;9.55;3.33;;;15.50;99.90;;;;;;5014091;28;37960;-96
2023/07/14 02:23:20;;;;;;;7.30;3.30;;;15.50;99.90;;;;;;5016148;28;37447;-88
2023/07/14 02:26:33;;;;;;;7.28;3.10;;;15.40;99.90;;;;;;5018871;28;38844;-96
2023/07/14 02:29:09;;;;;;;10.68;3.53;;;15.40;99.90;;;;;;5010214;28;48469;-96
2023/07/14 02:32:03;;;;;;;7.55;2.95;;;15.40;99.90;;;;;;5013233;28;47250;-95
2023/07/14 02:34:38;;;;;;;8.18;3.13;;;15.40;99.90;;;;;;5013596;28;47041;-96
2023/07/14 02:37:27;;;;;;;7.63;3.20;;;15.40;99.90;;;;;;5027379;28;37131;-96
2023/07/14 02:39:53;;;;;;;8.05;3.05;;;15.40;99.90;;;;;;4998516;28;36654;-96
2023/07/14 02:42:20;;;;;;;11.13;3.55;;;15.30;99.90;;;;;;5012513;28;37498;-96
2023/07/14 02:44:47;;;;;;;8.77;3.33;;;15.30;99.90;;;;;;5031784;28;38113;-96
2023/07/14 02:47:24;;;;;;;7.13;3.30;;;15.30;99.90;;;;;;5014809;28;37506;-96
2023/07/14 02:50:03;;;;;;;7.13;3.00;;;15.30;99.90;;;;;;5014732;28;36066;-96
2023/07/14 02:52:30;;;;;;;11.75;3.78;;;15.30;99.90;;;;;;5005566;28;47153;-96
2023/07/14 02:54:58;;;;;;;13.00;4.03;;;15.30;99.90;;;;;;5013221;28;38227;-96
2023/07/14 02:57:36;;;;;;;9.73;3.78;;;15.20;99.90;;;;;;5011588;28;38600;-96
2023/07/14 03:00:07;;;;;;;4.93;3.00;;;15.20;99.90;;;;;;4984587;28;36438;-96
2023/07/14 03:02:34;;;;;;;10.15;3.70;;;15.20;99.90;;;;;;4995925;28;37777;-96
2023/07/14 03:05:00;;;;;;;8.70;3.28;;;15.20;99.90;;;;;;4995571;28;37467;-96
2023/07/14 03:07:27;;;;;;;8.50;3.65;;;15.10;99.90;;;;;;5000087;28;38135;-96
2023/07/14 03:09:53;;;;;;;7.50;3.67;;;15.10;99.90;;;;;;5027296;28;37993;-96
2023/07/14 03:12:20;;;;;;;9.48;3.88;;;15.10;99.90;;;;;;5004155;28;37965;-96
2023/07/14 03:14:46;;;;;;;9.65;3.58;;;15.10;99.90;;;;;;5029330;28;37206;-95
2023/07/14 03:17:23;;;;;;;7.63;3.55;;;15.20;99.90;;;;;;5012558;28;37146;-96
2023/07/14 03:19:49;;;;;;;11.93;3.72;;;15.10;99.90;;;;;;5006394;28;35969;-96
2023/07/14 03:22:16;;;;;;;11.00;3.90;;;15.10;99.90;;;;;;5012318;28;37531;-96
2023/07/14 03:24:44;;;;;;;12.40;4.03;;;15.10;99.90;;;;;;5016160;28;38897;-96
2023/07/14 03:27:10;;;;;;;6.82;4.72;;;15.00;99.90;;;;;;5014180;28;38079;-96
2023/07/14 03:29:37;;;;;;;11.98;4.47;;;15.10;99.90;;;;;;5016139;28;36226;-96
2023/07/14 03:32:03;;;;;;;11.40;4.07;;;15.00;99.90;;;;;;5025573;28;38711;-94
2023/07/14 03:34:29;;;;;;;9.70;4.40;;;15.00;99.90;;;;;;4994647;28;37597;-93
2023/07/14 03:36:56;;;;;;;10.35;3.83;;;15.00;99.90;;;;;;5002578;28;37183;-96
2023/07/14 03:39:26;;;;;;;10.30;4.72;;;15.00;99.90;;;;;;5015013;28;36117;-94
2023/07/14 03:42:09;;;;;;;11.95;4.72;;;15.00;99.90;;;;;;5013021;28;37571;-94
2023/07/14 03:44:35;;;;;;;14.10;5.13;;;15.00;99.90;;;;;;5003868;28;47692;-95
2023/07/14 03:47:02;;;;;;;11.57;5.07;;;15.00;99.90;;;;;;5012572;28;37045;-93
2023/07/14 03:49:29;;;;;;;11.27;5.13;;;15.00;99.90;;;;;;5012569;28;47246;-95
2023/07/14 03:51:59;;;;;;;11.95;6.07;;;14.90;99.90;;;;;;5012452;28;38956;-96
2023/07/14 03:54:35;;;;;;;15.90;6.68;;;15.00;99.90;;;;;;4992131;28;38640;-95
2023/07/14 03:57:01;;;;;;;14.02;6.38;;;15.00;99.90;;;;;;5000473;28;37005;-94
2023/07/14 03:59:27;;;;;;;19.88;7.82;;;15.00;99.90;;;;;;4985412;28;35996;-95
2023/07/14 04:01:57;;;;;;;12.75;6.68;;;15.00;99.90;;;;;;4993680;28;38635;-95
2023/07/14 04:04:23;;;;;;;12.73;7.32;;;15.00;99.90;;;;;;4993591;28;38758;-94
2023/07/14 04:06:50;;;;;;;23.73;8.00;;;15.10;99.90;;;;;;4994927;28;38698;-94
2023/07/14 04:09:16;;;;;;;16.70;7.60;;;15.00;99.90;;;;;;5025705;28;36110;-96
2023/07/14 04:11:44;;;;;;;15.18;6.82;;;15.10;99.90;;;;;;4995990;28;20047;-95
2023/07/14 04:14:10;;;;;;;11.93;7.20;;;15.00;99.90;;;;;;5008481;28;39922;-95
2023/07/14 04:16:36;;;;;;;15.85;7.18;;;15.00;99.90;;;;;;4994712;28;38239;-95
2023/07/14 04:19:03;;;;;;;16.13;7.38;;;15.10;99.90;;;;;;4994159;28;37515;-95
2023/07/14 04:21:30;;;;;;;18.17;7.07;;;15.10;99.90;;;;;;4998834;28;37630;-95
2023/07/14 04:23:57;;;;;;;14.30;7.50;;;15.10;99.90;;;;;;5021905;28;37959;-95
2023/07/14 04:26:25;;;;;;;11.93;6.93;;;15.10;99.90;;;;;;5000091;28;37076;-94
2023/07/14 04:28:53;;;;;;;12.50;7.07;;;15.20;99.90;;;;;;5010422;28;35809;-95
2023/07/14 04:31:19;;;;;;;12.90;7.32;;;15.20;99.90;;;;;;4996698;28;38984;-95
2023/07/14 04:33:48;;;;;;;15.55;7.03;;;15.20;99.90;;;;;;5000082;28;37813;-94
2023/07/14 04:36:15;;;;;;;15.18;6.75;;;15.20;99.90;;;;;;4990567;28;37543;-95
2023/07/14 04:39:01;;;;;;;12.88;6.45;;;15.20;99.90;;;;;;4991313;28;37080;-95
2023/07/14 04:41:28;;;;;;;11.73;6.70;;;15.20;99.90;;;;;;5004867;28;46850;-95
2023/07/14 04:43:56;;;;;;;20.80;7.53;;;15.30;99.90;;;;;;5012995;28;37372;-94
2023/07/14 04:46:23;;;;;;;13.93;7.93;;;15.30;99.90;;;;;;5012973;28;38398;-94
2023/07/14 04:48:50;;;;;;;21.23;8.48;;;15.40;99.90;;;;;;5013782;28;36566;-94
2023/07/14 04:51:25;;;;;;;17.88;7.90;;;15.40;99.90;;;;;;5027716;28;37701;-95
2023/07/14 04:53:52;;;;;;;19.63;9.75;;;15.40;99.90;;;;;;5032318;28;37482;-95
2023/07/14 04:56:43;;;;;;;15.95;8.02;;;15.40;99.90;;;;;;5011866;28;37308;-95
2023/07/14 04:59:11;;;;;;;20.80;7.97;;;15.60;99.90;;;;;;5012178;28;37408;-95
2023/07/14 05:01:38;;;;;;;20.42;8.63;;;15.60;99.90;;;;;;5013393;28;38559;-94
2023/07/14 05:04:04;;;;;;;18.42;8.85;;;15.70;99.90;;;;;;5012562;28;38158;-94
2023/07/14 05:06:46;;;;;;;14.70;8.27;;;15.70;99.90;;;;;;5026725;28;37932;-95
2023/07/14 05:09:23;;;;;;;20.70;9.50;;;15.80;99.90;;;;;;4985043;28;36606;-96
2023/07/14 05:11:49;;;;;;;16.58;7.70;;;15.90;99.90;;;;;;5011642;28;37534;-95
2023/07/14 05:14:15;;;;;;;16.25;8.43;;;16.00;99.90;;;;;;4989968;28;36629;-96
2023/07/14 05:16:42;;;;;;;11.95;7.70;;;16.20;99.90;;;;;;5032233;28;37156;-95
2023/07/14 05:19:08;;;;;;;14.35;7.70;;;16.30;99.90;;;;;;5019595;28;35979;-95
2023/07/14 05:21:34;;;;;;;19.08;8.68;;;16.50;99.90;;;;;;5014975;28;38597;-96
2023/07/14 05:24:00;;;;;;;20.13;9.63;;;16.50;99.90;;;;;;5032947;28;37195;-96
2023/07/14 05:26:26;;;;;;;15.70;8.50;;;16.50;99.90;;;;;;5020310;28;37893;-96
2023/07/14 05:28:52;;;;;;;19.98;9.10;;;16.60;99.90;;;;;;5009654;28;35849;-96
2023/07/14 05:31:19;;;;;;;21.80;9.10;;;16.70;99.90;;;;;;5007297;28;38739;-95
2023/07/14 05:33:45;;;;;;;16.05;8.98;;;16.60;99.90;;;;;;5009473;28;38386;-95
2023/07/14 05:36:11;;;;;;;17.88;9.48;;;16.50;99.90;;;;;;5020398;28;37463;-96
2023/07/14 05:38:37;;;;;;;23.45;9.80;;;16.50;99.90;;;;;;5003455;28;35999;-96
2023/07/14 05:41:23;;;;;;;19.27;9.50;;;16.60;99.90;;;;;;5014124;28;37242;-96
2023/07/14 05:43:50;;;;;;;20.30;10.55;;;16.70;99.90;;;;;;5006441;28;39691;-96
2023/07/14 05:46:16;;;;;;;25.48;9.98;;;16.70;99.90;;;;;;5013694;28;36949;-96
2023/07/14 05:48:42;;;;;;;20.88;10.45;;;16.80;99.90;;;;;;5015932;28;36204;-96
2023/07/14 05:51:08;;;;;;;22.98;9.35;;;16.90;99.90;;;;;;4993391;28;38001;-96
2023/07/14 05:53:44;;;;;;;19.45;10.07;;;17.10;99.90;;;;;;5019063;28;37047;-96
2023/07/14 05:56:41;;;;;;;18.30;10.13;;;17.10;99.90;;;;;;5011764;28;37079;-95
2023/07/14 05:59:07;;;;;;;20.77;10.25;;;17.20;99.90;;;;;;5006786;28;36591;-96
2023/07/14 06:01:48;;;;;;;24.30;10.38;;;17.30;99.90;;;;;;5014375;28;37829;-96
2023/07/14 06:04:15;;;;;;;20.60;10.88;;;17.40;99.90;;;;;;5012537;28;37607;-96
2023/07/14 06:06:50;;;;;;;21.15;10.43;;;17.30;99.90;;;;;;4983327;28;39188;-96
2023/07/14 06:09:16;;;;;;;25.27;11.05;;;17.40;99.90;;;;;;5026304;28;36527;-94
2023/07/14 06:11:43;;;;;;;28.80;11.25;;;17.50;99.90;;;;;;4996594;28;39008;-96
2023/07/14 06:14:13;;;;;;;23.73;10.75;;;17.40;99.90;;;;;;4995381;28;38725;-95
2023/07/14 06:16:42;;;;;;;22.20;10.93;;;17.40;99.90;;;;;;4986659;28;36954;-96
2023/07/14 06:19:27;;;;;;;24.40;10.77;;;17.40;99.90;;;;;;4994521;28;36334;-96
2023/07/14 06:21:59;;;;;;;22.63;10.63;;;17.40;99.90;;;;;;4992959;28;37780;-95
2023/07/14 06:24:27;;;;;;;23.23;10.70;;;17.30;99.90;;;;;;4975171;28;37260;-95
2023/07/14 06:26:53;;;;;;;18.98;10.18;;;17.30;99.90;;;;;;4997824;28;37237;-96
2023/07/14 06:29:21;;;;;;;21.30;9.77;;;17.40;99.90;;;;;;4996634;28;38500;-94
2023/07/14 06:31:48;;;;;;;19.20;9.70;;;17.50;99.90;;;;;;5000671;28;38048;-96
2023/07/14 06:34:14;;;;;;;18.20;9.63;;;17.60;99.90;;;;;;5034103;28;37649;-96
2023/07/14 06:36:42;;;;;;;21.13;10.63;;;17.80;99.90;;;;;;5021771;28;37314;-94
2023/07/14 06:39:12;;;;;;;18.85;8.80;;;17.90;99.90;;;;;;5026439;28;36396;-96
2023/07/14 06:41:42;;;;;;;20.50;9.70;;;18.20;99.90;;;;;;5020038;28;38077;-94
2023/07/14 06:44:08;;;;;;;20.92;9.30;;;18.40;99.90;;;;;;4982443;28;39074;-95
2023/07/14 06:46:34;;;;;;;14.77;8.77;;;18.40;99.90;;;;;;4996284;28;37178;-95
2023/07/14 06:49:03;;;;;;;23.92;9.60;;;18.20;99.90;;;;;;5018875;28;37009;-96
2023/07/14 06:51:30;;;;;;;18.85;9.05;;;18.10;99.90;;;;;;5016313;28;47465;-96
2023/07/14 06:54:00;;;;;;;18.92;9.75;;;18.10;99.90;;;;;;5033316;28;38743;-96
2023/07/14 06:56:33;;;;;;;17.33;7.93;;;18.10;99.90;;;;;;5015847;28;38916;-96
2023/07/14 06:59:02;;;;;;;15.35;7.28;;;18.10;99.90;;;;;;5014442;28;35981;-96
2023/07/14 07:01:28;;;;;;;19.02;8.65;;;18.00;99.90;;;;;;5013437;28;47063;-96
2023/07/14 07:03:58;;;;;;;20.08;7.90;;;18.00;99.90;;;;;;5016944;28;38683;-95
2023/07/14 07:06:24;;;;;;;16.67;8.10;;;17.90;99.90;;;;;;5019205;28;37350;-96
2023/07/14 07:08:56;;;;;;;17.17;8.07;;;18.00;99.90;;;;;;5019051;28;37716;-95
2023/07/14 07:11:23;;;;;;;21.80;8.27;;;18.10;99.90;;;;;;5012916;28;37628;-93
2023/07/14 07:13:53;;;;;;;21.88;8.02;;;18.00;99.90;;;;;;5014917;28;39273;-94
2023/07/14 07:16:45;;;;;;;16.80;7.72;;;18.20;99.90;;;;;;5014245;28;37074;-95
2023/07/14 07:19:11;;;;;;;15.10;7.63;;;18.50;99.90;;;;;;5015208;28;37309;-96
2023/07/14 07:21:51;;;;;;;15.60;7.45;;;18.50;99.90;;;;;;5016730;28;39153;-94
2023/07/14 07:24:25;;;;;;;15.05;7.90;;;18.70;99.90;;;;;;5012681;28;37224;-95
2023/07/14 07:27:02;;;;;;;15.75;7.70;;;18.50;99.90;;;;;;5012990;28;36861;-94
2023/07/14 07:29:30;;;;;;;21.55;8.07;;;18.30;99.90;;;;;;5013083;28;47575;-95
2023/07/14 07:31:57;;;;;;;18.77;6.75;;;18.40;99.90;;;;;;5013196;28;37667;-95
2023/07/14 07:34:25;;;;;;;14.00;6.10;;;18.50;99.90;;;;;;5014832;28;37396;-96
2023/07/14 07:36:53;;;;;;;11.60;5.88;;;18.80;99.90;;;;;;5015809;28;36892;-95
2023/07/14 07:39:20;;;;;;;10.70;6.20;;;19.10;99.90;;;;;;5014606;28;36178;-96
2023/07/14 07:41:46;;;;;;;15.80;6.53;;;19.20;99.90;;;;;;5044589;28;37678;-93
2023/07/14 07:44:12;;;;;;;16.75;6.40;;;19.20;99.90;;;;;;5018618;28;37449;-94
2023/07/14 07:46:39;;;;;;;15.07;6.35;;;19.30;99.90;;;;;;5014320;28;38151;-93
2023/07/14 07:49:05;;;;;;;15.48;5.68;;;19.20;99.90;;;;;;5013835;28;37010;-93
2023/07/14 07:51:31;;;;;;;18.17;5.95;;;19.30;99.90;;;;;;5015694;28;38337;-92
2023/07/14 07:54:09;;;;;;;14.48;5.40;;;19.40;99.90;;;;;;5014622;28;37904;-92
2023/07/14 07:56:43;;;;;;;12.82;4.88;;;19.10;99.90;;;;;;5022296;28;47508;-91
2023/07/14 07:59:15;;;;;;;14.40;6.25;;;19.20;99.90;;;;;;5013343;28;36968;-92
2023/07/14 08:01:46;;;;;;;14.27;5.32;;;19.30;99.90;;;;;;5013304;28;39035;-92
2023/07/14 08:04:13;;;;;;;14.23;4.40;;;19.40;99.90;;;;;;5019295;28;37383;-91
2023/07/14 08:06:39;;;;;;;12.63;5.07;;;19.40;99.90;;;;;;4997060;28;37116;-91
2023/07/14 08:09:06;;;;;;;13.95;4.85;;;19.50;99.90;;;;;;5011062;28;36169;-91
2023/07/14 08:11:33;;;;;;;12.60;5.57;;;19.50;99.90;;;;;;5018253;28;37986;-92
2023/07/14 08:14:04;;;;;;;9.63;4.47;;;19.30;99.90;;;;;;5027329;28;37277;-92
2023/07/14 08:16:31;;;;;;;11.18;5.20;;;19.10;99.90;;;;;;5001572;28;47870;-92
2023/07/14 08:18:59;;;;;;;8.20;3.95;;;19.30;99.90;;;;;;5014137;28;35836;-91
2023/07/14 08:21:25;;;;;;;17.38;5.43;;;19.60;99.90;;;;;;5008937;28;37805;-93
2023/07/14 08:23:51;;;;;;;12.48;5.28;;;19.70;99.90;;;;;;5009229;28;37602;-90
2023/07/14 08:26:25;;;;;;;9.90;4.85;;;19.70;99.90;;;;;;5011287;28;37015;-91
2023/07/14 08:28:52;;;;;;;7.88;4.28;;;19.60;99.90;;;;;;5012014;28;36286;-91
2023/07/14 08:31:18;;;;;;;10.77;4.50;;;19.70;99.90;;;;;;5012615;28;37751;-93
2023/07/14 08:33:44;;;;;;;10.30;4.20;;;19.60;99.90;;;;;;5013516;28;37893;-92
2023/07/14 08:36:12;;;;;;;10.02;4.13;;;19.70;99.90;;;;;;5014162;28;38296;-92
2023/07/14 08:38:40;;;;;;;10.07;4.20;;;19.80;96.30;;;;;;5013504;28;36131;-95
2023/07/14 08:41:40;;;;;;;10.75;4.05;;;19.80;88.80;;;;;;5011460;28;39055;-92
2023/07/14 08:44:32;;;;;;;10.70;4.30;;;19.80;95.60;;;;;;5012006;28;37378;-89
2023/07/14 08:47:07;;;;;;;11.93;4.55;;;19.90;90.10;;;;;;5021013;28;37179;-95
2023/07/14 08:50:00;;;;;;;9.18;3.45;;;19.70;90.70;;;;;;5012852;28;47535;-93
2023/07/14 08:52:29;;;;;;;;;;;19.80;81.30;;;;;;5015325;28;40438;-93
2023/07/14 08:55:05;;;;;;;6.30;2.33;;;20.10;65.40;;;;;;5009789;28;38024;-91
2023/07/14 08:57:41;;;;;;;6.88;2.60;;;20.40;84.60;;;;;;5005984;28;47128;-93
2023/07/14 09:00:12;;;;;;;6.07;2.75;;;20.70;66.70;;;;;;5008153;28;37106;-90
2023/07/14 09:02:50;;;;;;;7.55;2.60;;;20.40;50.90;;;;;;5015701;28;38407;-93
2023/07/14 09:05:28;;;;;;;5.43;2.83;;;20.60;46.90;;;;;;5012271;28;37294;-94
2023/07/14 09:07:57;;;;;;;10.20;3.35;;;20.40;59.80;;;;;;5010389;28;36844;-91
2023/07/14 09:10:49;;;;;;;11.98;3.53;;;20.20;54.70;;;;;;5007161;28;36124;-93
2023/07/14 09:13:27;;;;;;;7.15;3.28;;;20.00;65.20;;;;;;5016053;28;37641;-94
2023/07/14 09:15:54;;;;;;;8.05;2.90;;;20.10;57.60;;;;;;5000549;28;37937;-91
2023/07/14 09:18:23;;;;;;;6.85;3.10;;;20.40;91.00;;;;;;5020263;28;36899;-91
2023/07/14 09:21:13;;;;;;;5.18;3.17;;;20.60;59.90;;;;;;5015648;28;36881;-90
2023/07/14 09:24:00;;;;;;;8.65;2.53;;;20.80;66.10;;;;;;4992795;28;46964;-92
2023/07/14 09:26:32;;;;;;;7.38;3.40;;;20.90;51.20;;;;;;4997946;28;48008;-91
2023/07/14 09:29:14;;;;;;;5.72;2.92;;;21.00;36.50;;;;;;4997586;28;37787;-93
2023/07/14 09:32:01;;;;;;;7.22;3.70;;;20.60;47.70;;;;;;5006066;28;47143;-94
2023/07/14 09:34:35;;;;;;;9.15;3.50;;;20.20;48.30;;;;;;5026427;28;47418;-92
2023/07/14 09:37:18;;;;;;;7.70;3.47;;;20.30;51.20;;;;;;5005563;28;37768;-92
2023/07/14 09:39:47;;;;;;;9.10;3.30;;;20.40;49.10;;;;;;5002910;28;47028;-91
2023/07/14 09:42:31;;;;;;;8.60;2.92;;;20.40;45.50;;;;;;5015796;28;38527;-92
2023/07/14 09:45:08;;;;;;;7.15;3.38;;;20.40;50.00;;;;;;5019419;28;38619;-91
2023/07/14 09:47:35;;;;;;;7.68;3.00;;;20.30;54.70;;;;;;5011924;28;47104;-95
2023/07/14 09:50:04;;;;;;;9.45;3.22;;;20.20;45.80;;;;;;5039299;28;36908;-94
2023/07/14 09:52:30;;;;;;;7.38;2.85;;;20.10;54.10;;;;;;5001841;28;47008;-92
2023/07/14 09:54:58;;;;;;;8.30;3.33;;;20.20;62.40;;;;;;5016906;28;38004;-92
2023/07/14 09:57:32;;;;;;;7.22;2.60;;;20.10;56.70;;;;;;5037638;28;37708;-94
2023/07/14 10:00:20;;;;;;;5.53;2.20;;;20.00;33.90;;;;;;5033609;28;37121;-93
2023/07/14 10:02:51;;;;;;;3.85;2.28;;;20.00;25.20;;;;;;5014174;28;48564;-94
2023/07/14 10:05:36;;;;;;;4.03;1.95;;;20.10;34.00;;;;;;5012717;28;39601;-89
2023/07/14 10:08:07;;;;;;;4.85;2.53;;;20.20;36.10;;;;;;5014496;28;38796;-87
2023/07/14 10:10:42;;;;;;;4.47;1.73;;;20.30;55.70;;;;;;5014235;28;37975;-88
2023/07/14 10:13:21;;;;;;;4.85;1.70;;;20.40;21.00;;;;;;5018400;28;36210;-94
2023/07/14 10:16:07;;;;;;;3.53;1.60;;;20.40;5.70;;;;;;4994810;28;37863;-90
2023/07/14 10:18:54;;;;;;;3.53;1.73;;;20.50;12.70;;;;;;5014577;28;48833;-88
2023/07/14 10:21:29;;;;;;;4.55;1.90;;;20.70;43.00;;;;;;4995273;28;38076;-89
2023/07/14 10:24:04;;;;;;;3.47;1.90;;;20.80;23.50;;;;;;4994677;28;36072;-94
2023/07/14 10:26:48;;;;;;;4.47;2.20;;;20.40;1.00;;;;;;5007768;28;47469;-91
2023/07/14 10:29:19;;;;;;;4.25;2.00;;;20.30;1.00;;;;;;5024105;28;37429;-90
2023/07/14 10:32:09;;;;;;;6.70;2.00;;;20.30;1.00;;;;;;5008208;28;38242;-91
2023/07/14 10:34:38;;;;;;;4.63;2.25;;;20.30;1.00;;;;;;5013044;28;47206;-92
2023/07/14 10:37:18;;;;;;;6.10;2.47;;;20.30;1.00;;;;;;5004503;28;37965;-89
2023/07/14 10:39:49;;;;;;;3.88;1.98;;;20.40;1.00;;;;;;5008008;28;37430;-92
2023/07/14 10:42:20;;;;;;;3.42;2.20;;;20.40;1.00;;;;;;5015419;28;37501;-91
2023/07/14 10:44:53;;;;;;;3.05;1.67;;;20.30;1.00;;;;;;5016287;28;38040;-92
2023/07/14 10:47:23;;;;;;;4.93;2.10;;;20.30;1.00;;;;;;5006117;28;39075;-92
2023/07/14 10:50:02;;;;;;;4.47;2.05;;;20.20;1.00;;;;;;5033088;28;37798;-91
2023/07/14 10:52:37;;;;;;;6.72;2.47;;;20.20;1.00;;;;;;5013666;28;37496;-95
2023/07/14 10:55:34;;;;;;;3.95;2.35;;;20.30;1.00;;;;;;5017594;28;37937;-92
2023/07/14 10:58:12;;;;;;;5.15;3.08;;;20.30;1.00;;;;;;5015423;28;47299;-92
2023/07/14 11:00:45;;;;;;;6.05;2.92;;;20.30;1.00;;;;;;4994401;28;48796;-90
2023/07/14 11:03:26;;;;;;;4.70;2.45;;;20.50;1.00;;;;;;5014315;28;36915;-91
2023/07/14 11:06:18;;;;;;;5.78;2.65;;;20.70;1.00;;;;;;5010918;28;36542;-91
2023/07/14 11:08:53;;;;;;;5.15;2.20;;;20.90;1.00;;;;;;5025853;28;47410;-89
2023/07/14 11:11:28;;;;;;;9.77;3.30;;;21.30;1.00;;;;;;4999019;28;37897;-89
2023/07/14 11:14:15;;;;;;;4.63;2.67;;;21.80;1.00;;;;;;5015868;28;37745;-89
2023/07/14 11:17:27;;;;;;;7.38;4.28;;;21.90;1.00;;;;;;5012712;28;47292;-91
2023/07/14 11:20:37;;;;;;;7.30;3.10;;;21.70;1.00;;;;;;5017075;28;47430;-90
2023/07/14 11:23:27;;;;;;;9.05;3.30;;;21.60;1.00;;;;;;5021676;28;47402;-93
2023/07/14 11:26:12;;;;;;;7.10;3.72;;;21.60;1.00;;;;;;5032151;28;39129;-93
2023/07/14 11:29:00;;;;;;;9.55;3.85;;;21.60;1.00;;;;;;5012989;28;47554;-92
2023/07/14 11:31:43;;;;;;;7.35;3.55;;;21.70;1.00;;;;;;5001067;28;38836;-90
2023/07/14 11:34:32;;;;;;;7.85;3.22;;;22.00;1.00;;;;;;5010309;28;37464;-91
2023/07/14 11:37:37;;;;;;;6.30;2.95;;;22.30;1.00;;;;;;5014950;28;37951;-91
2023/07/14 11:40:21;;;;;;;6.00;2.92;;;22.50;1.00;;;;;;5009581;28;47489;-89
2023/07/14 11:42:55;;;;;;;6.53;3.22;;;22.90;1.00;;;;;;5014685;28;47190;-94
2023/07/14 11:45:27;;;;;;;5.10;3.10;;;22.80;99.90;;;;;;5002976;28;38938;-90
2023/07/14 11:48:00;;;;;;;9.70;4.13;;;22.90;1.00;;;;;;5005504;28;37438;-93
2023/07/14 11:50:32;;;;;;;11.15;3.78;;;23.40;99.90;;;;;;5013981;28;47191;-91
2023/07/14 11:53:09;;;;;;;6.88;3.85;;;23.50;1.00;;;;;;5012243;28;37829;-91
2023/07/14 11:55:40;;;;;;;7.15;4.10;;;23.50;1.00;;;;;;5030432;28;47321;-94
2023/07/14 11:58:17;;;;;;;7.65;4.63;;;23.40;1.00;;;;;;5011580;28;37422;-90
2023/07/14 12:00:52;;;;;;;7.50;4.72;;;23.40;1.00;;;;;;5017485;28;37279;-94
2023/07/14 12:03:21;;;;;;;7.63;3.92;;;22.90;1.00;;;;;;5010723;28;37654;-91
2023/07/14 12:06:19;;;;;;;7.60;3.38;;;23.20;1.00;;;;;;5016530;28;38659;-93
2023/07/14 12:09:18;;;;;;;4.72;2.50;;;23.40;99.90;;;;;;5006630;28;47218;-91
2023/07/14 12:11:55;;;;;;;6.20;2.80;;;22.80;1.00;;;;;;5007773;28;47383;-94
2023/07/14 12:14:30;;;;;;;6.45;2.58;;;22.60;99.90;;;;;;5029165;28;37910;-93
2023/07/14 12:16:58;;;;;;;4.03;2.50;;;22.50;99.90;;;;;;5017549;28;37428;-93
2023/07/14 12:19:33;;;;;;;4.68;2.83;;;22.40;1.00;;;;;;5012349;28;37430;-93
2023/07/14 12:22:08;;;;;;;6.80;3.17;;;22.40;99.90;;;;;;4983178;28;36357;-92
2023/07/14 12:24:53;;;;;;;7.15;3.13;;;22.40;1.00;;;;;;5028077;28;47428;-93
2023/07/14 12:27:19;;;;;;;8.18;3.25;;;22.70;1.00;;;;;;5013018;28;37654;-96
2023/07/14 12:29:50;;;;;;;5.43;3.13;;;22.70;28.70;;;;;;5018529;28;39080;-92
2023/07/14 12:32:20;;;;;;;4.60;2.70;;;22.50;1.00;;;;;;5013513;28;37346;-94
2023/07/14 12:34:49;;;;;;;7.68;2.80;;;22.70;99.90;;;;;;5016438;28;37990;-91
2023/07/14 12:37:18;;;;;;;5.53;2.40;;;22.60;99.90;;;;;;5019013;28;37396;-92
2023/07/14 12:39:53;;;;;;;5.18;3.10;;;22.70;1.00;;;;;;5023550;28;38453;-93
2023/07/14 12:42:20;;;;;;;6.40;3.63;;;22.80;99.90;;;;;;5018971;28;35953;-91
2023/07/14 12:44:47;;;;;;;4.55;2.47;;;22.80;1.00;;;;;;5011262;28;39092;-91
2023/07/14 12:47:16;;;;;;;5.57;2.83;;;22.90;1.00;;;;;;5013095;28;37694;-90
2023/07/14 12:49:49;;;;;;;5.38;2.70;;;23.10;1.00;;;;;;5012243;28;37385;-90
2023/07/14 12:52:21;;;;;;;4.60;2.58;;;23.60;99.90;;;;;;5030227;28;36946;-94
2023/07/14 12:54:48;;;;;;;4.30;2.50;;;23.90;29.60;;;;;;5013614;28;39685;-91
2023/07/14 12:57:16;;;;;;;7.97;3.25;;;24.10;99.90;;;;;;5016343;28;36941;-90
2023/07/14 12:59:53;;;;;;;5.35;2.35;;;23.70;99.90;;;;;;5012191;28;36719;-90
2023/07/14 13:02:19;;;;;;;4.97;2.33;;;23.80;99.90;;;;;;5012154;28;36305;-93
2023/07/14 13:04:46;;;;;;;5.22;3.15;;;23.50;99.90;;;;;;5015919;28;38843;-94
2023/07/14 13:07:30;;;;;;;5.22;3.00;;;23.40;99.90;;;;;;5013489;28;37669;-91
2023/07/14 13:10:06;;;;;;;5.13;2.67;;;23.30;1.00;;;;;;5009822;28;37163;-93
2023/07/14 13:12:32;;;;;;;9.45;3.78;;;23.40;99.90;;;;;;5027222;28;47170;-93
2023/07/14 13:15:00;;;;;;;7.18;2.72;;;23.20;99.90;;;;;;5014430;28;39069;-92
2023/07/14 13:17:30;;;;;;;6.05;3.30;;;22.90;99.90;;;;;;5003058;28;37551;-92